sensor_id;sensor_type;location;lat;lon;timestamp;P1;durP1;ratioP1;P2;durP2;ratioP2
85342;SDS011;75760;31.390;34.904;2024-03-22T00:00:21;5.33;;;1.83;;
85342;SDS011;75760;31.390;34.904;2024-03-22T00:02:46;6.97;;;1.63;;
85342;SDS011;75760;31.390;34.904;2024-03-22T00:05:12;8.27;;;2.33;;
85342;SDS011;75760;31.390;34.904;2024-03-22T00:07:38;10.98;;;1.85;;
85342;SDS011;75760;31.390;34.904;2024-03-22T00:10:04;8.63;;;1.77;;
85342;SDS011;75760;31.390;34.904;2024-03-22T00:12:31;6.47;;;1.77;;
85342;SDS011;75760;31.390;34.904;2024-03-22T00:14:56;6.50;;;1.77;;
85342;SDS011;75760;31.390;34.904;2024-03-22T00:17:23;8.40;;;1.88;;
85342;SDS011;75760;31.390;34.904;2024-03-22T00:19:48;8.85;;;2.00;;
85342;SDS011;75760;31.390;34.904;2024-03-22T00:22:14;7.47;;;1.77;;
85342;SDS011;75760;31.390;34.904;2024-03-22T00:24:40;8.25;;;2.30;;
85342;SDS011;75760;31.390;34.904;2024-03-22T00:27:06;5.95;;;1.70;;
85342;SDS011;75760;31.390;34.904;2024-03-22T00:29:32;10.93;;;2.23;;
85342;SDS011;75760;31.390;34.904;2024-03-22T00:31:57;8.68;;;1.80;;
85342;SDS011;75760;31.390;34.904;2024-03-22T00:34:23;10.83;;;1.73;;
85342;SDS011;75760;31.390;34.904;2024-03-22T00:36:48;11.47;;;1.60;;
85342;SDS011;75760;31.390;34.904;2024-03-22T00:39:16;8.10;;;2.03;;
85342;SDS011;75760;31.390;34.904;2024-03-22T00:41:41;7.95;;;1.98;;
85342;SDS011;75760;31.390;34.904;2024-03-22T00:44:07;8.57;;;1.83;;
85342;SDS011;75760;31.390;34.904;2024-03-22T00:46:33;10.93;;;2.03;;
85342;SDS011;75760;31.390;34.904;2024-03-22T00:48:58;7.43;;;2.10;;
85342;SDS011;75760;31.390;34.904;2024-03-22T00:51:25;11.20;;;1.83;;
85342;SDS011;75760;31.390;34.904;2024-03-22T00:53:51;9.82;;;1.92;;
85342;SDS011;75760;31.390;34.904;2024-03-22T00:56:17;8.20;;;2.20;;
85342;SDS011;75760;31.390;34.904;2024-03-22T00:58:43;6.03;;;2.10;;
85342;SDS011;75760;31.390;34.904;2024-03-22T01:01:09;8.80;;;2.10;;
85342;SDS011;75760;31.390;34.904;2024-03-22T01:03:34;5.10;;;2.10;;
85342;SDS011;75760;31.390;34.904;2024-03-22T01:06:01;8.27;;;2.40;;
85342;SDS011;75760;31.390;34.904;2024-03-22T01:08:27;6.18;;;2.35;;
85342;SDS011;75760;31.390;34.904;2024-03-22T01:10:53;8.73;;;2.43;;
85342;SDS011;75760;31.390;34.904;2024-03-22T01:13:19;9.60;;;2.40;;
85342;SDS011;75760;31.390;34.904;2024-03-22T01:15:44;7.20;;;2.55;;
85342;SDS011;75760;31.390;34.904;2024-03-22T01:18:11;12.33;;;2.30;;
85342;SDS011;75760;31.390;34.904;2024-03-22T01:20:37;11.60;;;2.45;;
85342;SDS011;75760;31.390;34.904;2024-03-22T01:23:03;9.20;;;2.47;;
85342;SDS011;75760;31.390;34.904;2024-03-22T01:25:29;6.47;;;2.05;;
85342;SDS011;75760;31.390;34.904;2024-03-22T01:27:55;9.35;;;2.40;;
85342;SDS011;75760;31.390;34.904;2024-03-22T01:30:22;8.20;;;2.00;;
85342;SDS011;75760;31.390;34.904;2024-03-22T01:32:48;5.80;;;2.10;;
85342;SDS011;75760;31.390;34.904;2024-03-22T01:35:13;9.95;;;2.20;;
85342;SDS011;75760;31.390;34.904;2024-03-22T01:37:39;8.10;;;2.20;;
85342;SDS011;75760;31.390;34.904;2024-03-22T01:40:05;8.50;;;2.45;;
85342;SDS011;75760;31.390;34.904;2024-03-22T01:42:31;11.27;;;2.50;;
85342;SDS011;75760;31.390;34.904;2024-03-22T01:44:57;9.30;;;2.00;;
85342;SDS011;75760;31.390;34.904;2024-03-22T01:47:22;10.65;;;2.42;;
85342;SDS011;75760;31.390;34.904;2024-03-22T01:49:49;12.43;;;2.10;;
85342;SDS011;75760;31.390;34.904;2024-03-22T01:52:17;10.65;;;2.10;;
85342;SDS011;75760;31.390;34.904;2024-03-22T01:54:43;8.60;;;2.40;;
85342;SDS011;75760;31.390;34.904;2024-03-22T01:57:08;9.83;;;2.17;;
85342;SDS011;75760;31.390;34.904;2024-03-22T01:59:35;10.38;;;2.42;;
85342;SDS011;75760;31.390;34.904;2024-03-22T02:02:01;9.73;;;2.58;;
85342;SDS011;75760;31.390;34.904;2024-03-22T02:04:27;7.37;;;2.07;;
85342;SDS011;75760;31.390;34.904;2024-03-22T02:06:53;8.82;;;2.00;;
85342;SDS011;75760;31.390;34.904;2024-03-22T02:09:19;11.67;;;2.20;;
85342;SDS011;75760;31.390;34.904;2024-03-22T02:11:46;6.97;;;2.10;;
85342;SDS011;75760;31.390;34.904;2024-03-22T02:14:12;7.80;;;2.13;;
85342;SDS011;75760;31.390;34.904;2024-03-22T02:16:41;9.85;;;1.98;;
85342;SDS011;75760;31.390;34.904;2024-03-22T02:19:07;12.57;;;2.07;;
85342;SDS011;75760;31.390;34.904;2024-03-22T02:21:33;8.55;;;2.08;;
85342;SDS011;75760;31.390;34.904;2024-03-22T02:24:00;8.30;;;1.95;;
85342;SDS011;75760;31.390;34.904;2024-03-22T02:26:25;10.13;;;2.33;;
85342;SDS011;75760;31.390;34.904;2024-03-22T02:28:51;7.90;;;2.13;;
85342;SDS011;75760;31.390;34.904;2024-03-22T02:31:17;12.50;;;1.97;;
85342;SDS011;75760;31.390;34.904;2024-03-22T02:33:42;11.23;;;2.22;;
85342;SDS011;75760;31.390;34.904;2024-03-22T02:36:08;8.47;;;2.43;;
85342;SDS011;75760;31.390;34.904;2024-03-22T02:38:34;10.25;;;1.77;;
85342;SDS011;75760;31.390;34.904;2024-03-22T02:41:00;10.00;;;2.22;;
85342;SDS011;75760;31.390;34.904;2024-03-22T02:43:25;9.27;;;1.93;;
85342;SDS011;75760;31.390;34.904;2024-03-22T02:45:51;11.18;;;2.67;;
85342;SDS011;75760;31.390;34.904;2024-03-22T02:48:17;8.20;;;2.10;;
85342;SDS011;75760;31.390;34.904;2024-03-22T02:50:42;8.33;;;1.97;;
85342;SDS011;75760;31.390;34.904;2024-03-22T02:53:08;7.45;;;1.77;;
85342;SDS011;75760;31.390;34.904;2024-03-22T02:55:40;9.17;;;2.07;;
85342;SDS011;75760;31.390;34.904;2024-03-22T02:58:06;7.70;;;1.80;;
85342;SDS011;75760;31.390;34.904;2024-03-22T03:00:39;5.90;;;2.22;;
85342;SDS011;75760;31.390;34.904;2024-03-22T03:03:07;14.32;;;1.98;;
85342;SDS011;75760;31.390;34.904;2024-03-22T03:05:33;7.22;;;1.95;;
85342;SDS011;75760;31.390;34.904;2024-03-22T03:08:02;8.33;;;2.07;;
85342;SDS011;75760;31.390;34.904;2024-03-22T03:10:29;6.45;;;1.60;;
85342;SDS011;75760;31.390;34.904;2024-03-22T03:12:54;9.27;;;1.95;;
85342;SDS011;75760;31.390;34.904;2024-03-22T03:15:20;7.78;;;1.80;;
85342;SDS011;75760;31.390;34.904;2024-03-22T03:17:46;7.13;;;1.70;;
85342;SDS011;75760;31.390;34.904;2024-03-22T03:20:12;10.77;;;2.05;;
85342;SDS011;75760;31.390;34.904;2024-03-22T03:22:41;7.90;;;1.85;;
85342;SDS011;75760;31.390;34.904;2024-03-22T03:25:07;8.63;;;1.60;;
85342;SDS011;75760;31.390;34.904;2024-03-22T03:27:33;10.00;;;2.17;;
85342;SDS011;75760;31.390;34.904;2024-03-22T03:29:59;9.00;;;1.77;;
85342;SDS011;75760;31.390;34.904;2024-03-22T03:32:26;9.30;;;2.25;;
85342;SDS011;75760;31.390;34.904;2024-03-22T03:34:52;13.52;;;2.28;;
85342;SDS011;75760;31.390;34.904;2024-03-22T03:37:17;8.80;;;1.83;;
85342;SDS011;75760;31.390;34.904;2024-03-22T03:39:43;5.03;;;1.47;;
85342;SDS011;75760;31.390;34.904;2024-03-22T03:42:09;9.93;;;2.15;;
85342;SDS011;75760;31.390;34.904;2024-03-22T03:44:34;7.93;;;1.50;;
85342;SDS011;75760;31.390;34.904;2024-03-22T03:47:01;5.75;;;1.45;;
85342;SDS011;75760;31.390;34.904;2024-03-22T03:49:27;9.80;;;1.73;;
85342;SDS011;75760;31.390;34.904;2024-03-22T03:51:53;9.10;;;1.80;;
85342;SDS011;75760;31.390;34.904;2024-03-22T03:54:18;6.38;;;1.50;;
85342;SDS011;75760;31.390;34.904;2024-03-22T03:56:44;7.07;;;1.50;;
85342;SDS011;75760;31.390;34.904;2024-03-22T03:59:10;14.82;;;1.75;;
85342;SDS011;75760;31.390;34.904;2024-03-22T04:01:35;15.87;;;2.50;;
85342;SDS011;75760;31.390;34.904;2024-03-22T04:04:02;8.90;;;1.60;;
85342;SDS011;75760;31.390;34.904;2024-03-22T04:06:28;12.27;;;2.37;;
85342;SDS011;75760;31.390;34.904;2024-03-22T04:08:53;8.93;;;2.22;;
85342;SDS011;75760;31.390;34.904;2024-03-22T04:11:19;9.30;;;1.97;;
85342;SDS011;75760;31.390;34.904;2024-03-22T04:13:45;7.53;;;2.15;;
85342;SDS011;75760;31.390;34.904;2024-03-22T04:16:10;7.37;;;2.00;;
85342;SDS011;75760;31.390;34.904;2024-03-22T04:18:36;7.65;;;2.20;;
85342;SDS011;75760;31.390;34.904;2024-03-22T04:21:02;8.83;;;1.93;;
85342;SDS011;75760;31.390;34.904;2024-03-22T04:23:27;9.65;;;1.60;;
85342;SDS011;75760;31.390;34.904;2024-03-22T04:25:56;7.93;;;1.80;;
85342;SDS011;75760;31.390;34.904;2024-03-22T04:28:27;9.15;;;2.22;;
85342;SDS011;75760;31.390;34.904;2024-03-22T04:33:25;9.85;;;1.85;;
85342;SDS011;75760;31.390;34.904;2024-03-22T04:35:52;7.40;;;1.60;;
85342;SDS011;75760;31.390;34.904;2024-03-22T04:38:18;11.15;;;1.77;;
85342;SDS011;75760;31.390;34.904;2024-03-22T04:40:44;10.70;;;1.90;;
85342;SDS011;75760;31.390;34.904;2024-03-22T04:43:09;7.93;;;1.73;;
85342;SDS011;75760;31.390;34.904;2024-03-22T04:45:35;7.35;;;1.92;;
85342;SDS011;75760;31.390;34.904;2024-03-22T04:48:01;8.60;;;1.53;;
85342;SDS011;75760;31.390;34.904;2024-03-22T04:50:29;10.43;;;2.03;;
85342;SDS011;75760;31.390;34.904;2024-03-22T04:52:56;9.52;;;2.10;;
85342;SDS011;75760;31.390;34.904;2024-03-22T04:55:22;9.83;;;2.23;;
85342;SDS011;75760;31.390;34.904;2024-03-22T04:57:47;5.55;;;1.65;;
85342;SDS011;75760;31.390;34.904;2024-03-22T05:00:13;9.67;;;1.90;;
85342;SDS011;75760;31.390;34.904;2024-03-22T05:02:39;8.55;;;2.22;;
85342;SDS011;75760;31.390;34.904;2024-03-22T05:05:05;10.20;;;1.73;;
85342;SDS011;75760;31.390;34.904;2024-03-22T05:07:32;10.50;;;1.90;;
85342;SDS011;75760;31.390;34.904;2024-03-22T05:09:58;6.55;;;2.10;;
85342;SDS011;75760;31.390;34.904;2024-03-22T05:12:23;13.20;;;2.30;;
85342;SDS011;75760;31.390;34.904;2024-03-22T05:14:49;14.75;;;2.30;;
85342;SDS011;75760;31.390;34.904;2024-03-22T05:17:15;20.67;;;2.53;;
85342;SDS011;75760;31.390;34.904;2024-03-22T05:19:40;13.00;;;2.63;;
85342;SDS011;75760;31.390;34.904;2024-03-22T05:22:06;6.37;;;2.20;;
85342;SDS011;75760;31.390;34.904;2024-03-22T05:24:32;12.85;;;2.03;;
85342;SDS011;75760;31.390;34.904;2024-03-22T05:26:58;6.73;;;1.87;;
85342;SDS011;75760;31.390;34.904;2024-03-22T05:29:24;12.23;;;2.08;;
85342;SDS011;75760;31.390;34.904;2024-03-22T05:31:50;15.43;;;2.30;;
85342;SDS011;75760;31.390;34.904;2024-03-22T05:34:17;9.13;;;2.00;;
85342;SDS011;75760;31.390;34.904;2024-03-22T05:36:44;12.88;;;2.03;;
85342;SDS011;75760;31.390;34.904;2024-03-22T05:39:10;6.90;;;1.60;;
85342;SDS011;75760;31.390;34.904;2024-03-22T05:41:37;6.35;;;1.90;;
85342;SDS011;75760;31.390;34.904;2024-03-22T05:44:03;9.02;;;1.90;;
85342;SDS011;75760;31.390;34.904;2024-03-22T05:46:29;9.17;;;2.40;;
85342;SDS011;75760;31.390;34.904;2024-03-22T05:48:55;7.88;;;2.30;;
85342;SDS011;75760;31.390;34.904;2024-03-22T05:51:22;7.50;;;2.03;;
85342;SDS011;75760;31.390;34.904;2024-03-22T05:53:48;12.32;;;2.28;;
85342;SDS011;75760;31.390;34.904;2024-03-22T05:56:13;13.63;;;2.10;;
85342;SDS011;75760;31.390;34.904;2024-03-22T05:58:39;8.18;;;1.95;;
85342;SDS011;75760;31.390;34.904;2024-03-22T06:01:05;8.67;;;2.30;;
85342;SDS011;75760;31.390;34.904;2024-03-22T06:03:31;10.10;;;2.20;;
85342;SDS011;75760;31.390;34.904;2024-03-22T06:05:58;8.97;;;2.10;;
85342;SDS011;75760;31.390;34.904;2024-03-22T06:08:28;6.90;;;1.93;;
85342;SDS011;75760;31.390;34.904;2024-03-22T06:10:54;11.70;;;2.13;;
85342;SDS011;75760;31.390;34.904;2024-03-22T06:13:23;9.98;;;2.45;;
85342;SDS011;75760;31.390;34.904;2024-03-22T06:15:49;10.13;;;2.33;;
85342;SDS011;75760;31.390;34.904;2024-03-22T06:18:15;10.43;;;2.03;;
85342;SDS011;75760;31.390;34.904;2024-03-22T06:20:41;9.05;;;2.00;;
85342;SDS011;75760;31.390;34.904;2024-03-22T06:23:09;9.57;;;1.87;;
85342;SDS011;75760;31.390;34.904;2024-03-22T06:25:35;8.10;;;2.10;;
85342;SDS011;75760;31.390;34.904;2024-03-22T06:28:01;9.30;;;1.77;;
85342;SDS011;75760;31.390;34.904;2024-03-22T06:30:27;8.15;;;2.05;;
85342;SDS011;75760;31.390;34.904;2024-03-22T06:32:53;7.57;;;2.13;;
85342;SDS011;75760;31.390;34.904;2024-03-22T06:35:21;12.13;;;2.15;;
85342;SDS011;75760;31.390;34.904;2024-03-22T06:37:47;5.35;;;1.67;;
85342;SDS011;75760;31.390;34.904;2024-03-22T06:40:16;5.67;;;1.53;;
85342;SDS011;75760;31.390;34.904;2024-03-22T06:42:42;9.50;;;1.73;;
85342;SDS011;75760;31.390;34.904;2024-03-22T06:45:07;9.50;;;2.13;;
85342;SDS011;75760;31.390;34.904;2024-03-22T06:47:33;7.13;;;1.93;;
85342;SDS011;75760;31.390;34.904;2024-03-22T06:49:59;11.57;;;2.20;;
85342;SDS011;75760;31.390;34.904;2024-03-22T06:52:24;9.37;;;1.80;;
85342;SDS011;75760;31.390;34.904;2024-03-22T06:54:50;6.82;;;1.70;;
85342;SDS011;75760;31.390;34.904;2024-03-22T06:57:17;7.93;;;1.77;;
85342;SDS011;75760;31.390;34.904;2024-03-22T06:59:43;10.33;;;1.70;;
85342;SDS011;75760;31.390;34.904;2024-03-22T07:02:08;12.43;;;2.35;;
85342;SDS011;75760;31.390;34.904;2024-03-22T07:04:34;7.43;;;2.03;;
85342;SDS011;75760;31.390;34.904;2024-03-22T07:07:00;7.32;;;2.40;;
85342;SDS011;75760;31.390;34.904;2024-03-22T07:09:26;9.73;;;2.22;;
85342;SDS011;75760;31.390;34.904;2024-03-22T07:11:54;9.83;;;1.90;;
85342;SDS011;75760;31.390;34.904;2024-03-22T07:14:20;11.15;;;2.00;;
85342;SDS011;75760;31.390;34.904;2024-03-22T07:16:46;10.27;;;2.00;;
85342;SDS011;75760;31.390;34.904;2024-03-22T07:19:11;8.45;;;2.22;;
85342;SDS011;75760;31.390;34.904;2024-03-22T07:21:37;7.20;;;1.80;;
85342;SDS011;75760;31.390;34.904;2024-03-22T07:24:04;10.23;;;2.08;;
85342;SDS011;75760;31.390;34.904;2024-03-22T07:26:29;8.43;;;1.67;;
85342;SDS011;75760;31.390;34.904;2024-03-22T07:28:55;10.55;;;2.10;;
85342;SDS011;75760;31.390;34.904;2024-03-22T07:31:21;10.40;;;2.20;;
85342;SDS011;75760;31.390;34.904;2024-03-22T07:33:47;11.57;;;1.90;;
85342;SDS011;75760;31.390;34.904;2024-03-22T07:36:15;8.93;;;1.90;;
85342;SDS011;75760;31.390;34.904;2024-03-22T07:38:41;10.98;;;2.55;;
85342;SDS011;75760;31.390;34.904;2024-03-22T07:41:07;8.70;;;1.80;;
85342;SDS011;75760;31.390;34.904;2024-03-22T07:43:32;10.02;;;2.40;;
85342;SDS011;75760;31.390;34.904;2024-03-22T07:45:58;9.63;;;2.40;;
85342;SDS011;75760;31.390;34.904;2024-03-22T07:48:24;12.38;;;2.33;;
85342;SDS011;75760;31.390;34.904;2024-03-22T07:50:57;8.70;;;2.40;;
85342;SDS011;75760;31.390;34.904;2024-03-22T07:53:23;9.45;;;2.58;;
85342;SDS011;75760;31.390;34.904;2024-03-22T07:55:49;12.00;;;2.17;;
85342;SDS011;75760;31.390;34.904;2024-03-22T07:58:15;10.43;;;2.47;;
85342;SDS011;75760;31.390;34.904;2024-03-22T08:00:40;8.13;;;2.40;;
85342;SDS011;75760;31.390;34.904;2024-03-22T08:03:06;8.02;;;2.38;;
85342;SDS011;75760;31.390;34.904;2024-03-22T08:05:32;11.40;;;2.20;;
85342;SDS011;75760;31.390;34.904;2024-03-22T08:07:58;10.63;;;2.60;;
85342;SDS011;75760;31.390;34.904;2024-03-22T08:10:24;12.50;;;2.37;;
85342;SDS011;75760;31.390;34.904;2024-03-22T08:12:49;10.02;;;2.83;;
85342;SDS011;75760;31.390;34.904;2024-03-22T08:15:15;12.50;;;3.40;;
85342;SDS011;75760;31.390;34.904;2024-03-22T08:17:40;13.10;;;2.58;;
85342;SDS011;75760;31.390;34.904;2024-03-22T08:20:06;9.47;;;2.57;;
85342;SDS011;75760;31.390;34.904;2024-03-22T08:22:32;11.13;;;2.58;;
85342;SDS011;75760;31.390;34.904;2024-03-22T08:24:58;10.23;;;2.33;;
85342;SDS011;75760;31.390;34.904;2024-03-22T08:27:23;7.63;;;2.40;;
85342;SDS011;75760;31.390;34.904;2024-03-22T08:29:49;13.53;;;2.70;;
85342;SDS011;75760;31.390;34.904;2024-03-22T08:32:15;7.18;;;2.17;;
85342;SDS011;75760;31.390;34.904;2024-03-22T08:34:41;12.23;;;2.37;;
85342;SDS011;75760;31.390;34.904;2024-03-22T08:37:06;9.43;;;2.33;;
85342;SDS011;75760;31.390;34.904;2024-03-22T08:39:32;8.70;;;2.30;;
85342;SDS011;75760;31.390;34.904;2024-03-22T08:41:58;9.48;;;2.28;;
85342;SDS011;75760;31.390;34.904;2024-03-22T08:44:23;10.13;;;2.07;;
85342;SDS011;75760;31.390;34.904;2024-03-22T08:46:49;8.55;;;1.90;;
85342;SDS011;75760;31.390;34.904;2024-03-22T08:49:15;11.27;;;2.35;;
85342;SDS011;75760;31.390;34.904;2024-03-22T08:51:41;11.23;;;2.20;;
85342;SDS011;75760;31.390;34.904;2024-03-22T08:54:06;9.02;;;2.17;;
85342;SDS011;75760;31.390;34.904;2024-03-22T08:56:32;14.50;;;2.50;;
85342;SDS011;75760;31.390;34.904;2024-03-22T08:58:58;8.75;;;1.88;;
85342;SDS011;75760;31.390;34.904;2024-03-22T09:01:24;10.07;;;1.90;;
85342;SDS011;75760;31.390;34.904;2024-03-22T09:03:50;12.35;;;1.75;;
85342;SDS011;75760;31.390;34.904;2024-03-22T09:06:16;7.75;;;1.90;;
85342;SDS011;75760;31.390;34.904;2024-03-22T09:08:42;9.73;;;2.03;;
85342;SDS011;75760;31.390;34.904;2024-03-22T09:11:07;6.10;;;2.40;;
85342;SDS011;75760;31.390;34.904;2024-03-22T09:13:34;10.97;;;2.10;;
85342;SDS011;75760;31.390;34.904;2024-03-22T09:16:00;7.90;;;2.17;;
85342;SDS011;75760;31.390;34.904;2024-03-22T09:18:27;7.85;;;1.80;;
85342;SDS011;75760;31.390;34.904;2024-03-22T09:20:53;6.97;;;1.90;;
85342;SDS011;75760;31.390;34.904;2024-03-22T09:23:19;9.90;;;1.77;;
85342;SDS011;75760;31.390;34.904;2024-03-22T09:25:45;8.15;;;1.70;;
85342;SDS011;75760;31.390;34.904;2024-03-22T09:28:14;8.55;;;2.03;;
85342;SDS011;75760;31.390;34.904;2024-03-22T09:30:40;10.60;;;1.83;;
85342;SDS011;75760;31.390;34.904;2024-03-22T09:33:06;8.15;;;1.77;;
85342;SDS011;75760;31.390;34.904;2024-03-22T09:35:36;12.63;;;1.73;;
85342;SDS011;75760;31.390;34.904;2024-03-22T09:38:01;7.80;;;1.80;;
85342;SDS011;75760;31.390;34.904;2024-03-22T09:40:27;9.02;;;1.80;;
85342;SDS011;75760;31.390;34.904;2024-03-22T09:42:54;7.70;;;2.42;;
85342;SDS011;75760;31.390;34.904;2024-03-22T09:45:27;5.20;;;1.83;;
85342;SDS011;75760;31.390;34.904;2024-03-22T09:47:54;7.93;;;1.90;;
85342;SDS011;75760;31.390;34.904;2024-03-22T09:50:22;8.25;;;2.00;;
85342;SDS011;75760;31.390;34.904;2024-03-22T09:52:47;7.23;;;1.90;;
85342;SDS011;75760;31.390;34.904;2024-03-22T09:55:17;6.50;;;1.70;;
85342;SDS011;75760;31.390;34.904;2024-03-22T09:57:52;9.93;;;1.83;;
85342;SDS011;75760;31.390;34.904;2024-03-22T10:00:20;6.88;;;2.13;;
85342;SDS011;75760;31.390;34.904;2024-03-22T10:02:47;10.07;;;2.10;;
85342;SDS011;75760;31.390;34.904;2024-03-22T10:05:14;6.10;;;1.70;;
85342;SDS011;75760;31.390;34.904;2024-03-22T10:07:40;8.87;;;1.90;;
85342;SDS011;75760;31.390;34.904;2024-03-22T10:10:06;8.20;;;2.22;;
85342;SDS011;75760;31.390;34.904;2024-03-22T10:12:33;12.15;;;1.95;;
85342;SDS011;75760;31.390;34.904;2024-03-22T10:14:58;7.53;;;1.67;;
85342;SDS011;75760;31.390;34.904;2024-03-22T10:17:26;10.00;;;1.50;;
85342;SDS011;75760;31.390;34.904;2024-03-22T10:19:52;5.47;;;1.60;;
85342;SDS011;75760;31.390;34.904;2024-03-22T10:22:18;14.53;;;2.20;;
85342;SDS011;75760;31.390;34.904;2024-03-22T10:24:44;9.00;;;2.00;;
85342;SDS011;75760;31.390;34.904;2024-03-22T10:27:10;13.90;;;2.10;;
85342;SDS011;75760;31.390;34.904;2024-03-22T10:41:51;8.53;;;2.53;;
85342;SDS011;75760;31.390;34.904;2024-03-22T10:44:16;11.52;;;2.40;;
85342;SDS011;75760;31.390;34.904;2024-03-22T10:46:46;8.90;;;2.20;;
85342;SDS011;75760;31.390;34.904;2024-03-22T10:49:17;7.22;;;2.20;;
85342;SDS011;75760;31.390;34.904;2024-03-22T10:51:46;8.85;;;2.00;;
85342;SDS011;75760;31.390;34.904;2024-03-22T10:54:16;7.70;;;2.00;;
85342;SDS011;75760;31.390;34.904;2024-03-22T10:56:45;11.90;;;2.30;;
85342;SDS011;75760;31.390;34.904;2024-03-22T10:59:14;10.63;;;2.47;;
85342;SDS011;75760;31.390;34.904;2024-03-22T11:01:49;9.15;;;2.47;;
85342;SDS011;75760;31.390;34.904;2024-03-22T11:04:19;9.13;;;2.30;;
85342;SDS011;75760;31.390;34.904;2024-03-22T11:06:50;9.68;;;2.85;;
85342;SDS011;75760;31.390;34.904;2024-03-22T11:09:22;11.70;;;2.67;;
85342;SDS011;75760;31.390;34.904;2024-03-22T11:11:52;99.40;;;11.03;;
85342;SDS011;75760;31.390;34.904;2024-03-22T11:14:18;50.58;;;7.10;;
85342;SDS011;75760;31.390;34.904;2024-03-22T11:16:45;31.80;;;10.07;;
85342;SDS011;75760;31.390;34.904;2024-03-22T11:19:11;27.33;;;7.47;;
85342;SDS011;75760;31.390;34.904;2024-03-22T11:21:37;18.73;;;4.37;;
85342;SDS011;75760;31.390;34.904;2024-03-22T11:24:04;13.30;;;3.15;;
85342;SDS011;75760;31.390;34.904;2024-03-22T11:26:31;9.88;;;2.53;;
85342;SDS011;75760;31.390;34.904;2024-03-22T11:28:58;6.90;;;2.15;;
85342;SDS011;75760;31.390;34.904;2024-03-22T11:31:24;7.82;;;2.80;;
85342;SDS011;75760;31.390;34.904;2024-03-22T11:33:55;12.90;;;2.50;;
85342;SDS011;75760;31.390;34.904;2024-03-22T11:36:22;13.18;;;2.72;;
85342;SDS011;75760;31.390;34.904;2024-03-22T11:38:48;10.30;;;2.35;;
85342;SDS011;75760;31.390;34.904;2024-03-22T11:41:18;9.02;;;2.40;;
85342;SDS011;75760;31.390;34.904;2024-03-22T11:43:49;11.43;;;2.75;;
85342;SDS011;75760;31.390;34.904;2024-03-22T11:46:16;23.57;;;3.47;;
85342;SDS011;75760;31.390;34.904;2024-03-22T11:48:42;8.90;;;2.67;;
85342;SDS011;75760;31.390;34.904;2024-03-22T11:51:09;14.90;;;3.17;;
85342;SDS011;75760;31.390;34.904;2024-03-22T11:53:35;15.25;;;3.70;;
85342;SDS011;75760;31.390;34.904;2024-03-22T11:56:02;16.23;;;3.85;;
85342;SDS011;75760;31.390;34.904;2024-03-22T11:58:29;19.33;;;5.67;;
85342;SDS011;75760;31.390;34.904;2024-03-22T12:00:57;13.95;;;3.42;;
85342;SDS011;75760;31.390;34.904;2024-03-22T12:03:23;11.43;;;2.70;;
85342;SDS011;75760;31.390;34.904;2024-03-22T12:05:49;9.68;;;2.58;;
85342;SDS011;75760;31.390;34.904;2024-03-22T12:08:16;21.77;;;9.07;;
85342;SDS011;75760;31.390;34.904;2024-03-22T12:10:45;31.05;;;11.10;;
85342;SDS011;75760;31.390;34.904;2024-03-22T12:13:10;55.35;;;21.85;;
85342;SDS011;75760;31.390;34.904;2024-03-22T12:15:36;49.17;;;18.70;;
85342;SDS011;75760;31.390;34.904;2024-03-22T12:18:02;18.03;;;6.17;;
85342;SDS011;75760;31.390;34.904;2024-03-22T12:20:28;27.83;;;11.00;;
85342;SDS011;75760;31.390;34.904;2024-03-22T12:22:54;18.80;;;6.50;;
85342;SDS011;75760;31.390;34.904;2024-03-22T12:25:20;16.02;;;5.03;;
85342;SDS011;75760;31.390;34.904;2024-03-22T12:27:46;12.20;;;2.50;;
85342;SDS011;75760;31.390;34.904;2024-03-22T12:30:12;12.32;;;3.30;;
85342;SDS011;75760;31.390;34.904;2024-03-22T12:32:38;13.40;;;4.05;;
85342;SDS011;75760;31.390;34.904;2024-03-22T12:35:04;11.60;;;3.40;;
85342;SDS011;75760;31.390;34.904;2024-03-22T12:37:30;11.30;;;3.30;;
85342;SDS011;75760;31.390;34.904;2024-03-22T12:39:56;10.70;;;3.00;;
85342;SDS011;75760;31.390;34.904;2024-03-22T12:42:22;10.00;;;3.60;;
85342;SDS011;75760;31.390;34.904;2024-03-22T12:44:48;9.93;;;2.90;;
85342;SDS011;75760;31.390;34.904;2024-03-22T12:47:13;10.50;;;2.67;;
85342;SDS011;75760;31.390;34.904;2024-03-22T12:49:39;13.47;;;2.70;;
85342;SDS011;75760;31.390;34.904;2024-03-22T12:52:05;14.88;;;3.15;;
85342;SDS011;75760;31.390;34.904;2024-03-22T12:54:32;9.48;;;3.03;;
85342;SDS011;75760;31.390;34.904;2024-03-22T12:56:57;9.93;;;3.10;;
85342;SDS011;75760;31.390;34.904;2024-03-22T12:59:23;8.85;;;2.85;;
85342;SDS011;75760;31.390;34.904;2024-03-22T13:01:48;9.90;;;3.03;;
85342;SDS011;75760;31.390;34.904;2024-03-22T13:04:14;10.02;;;2.50;;
85342;SDS011;75760;31.390;34.904;2024-03-22T13:06:40;8.87;;;2.63;;
85342;SDS011;75760;31.390;34.904;2024-03-22T13:09:06;11.00;;;2.70;;
85342;SDS011;75760;31.390;34.904;2024-03-22T13:11:34;11.90;;;2.75;;
85342;SDS011;75760;31.390;34.904;2024-03-22T13:14:00;9.73;;;2.50;;
85342;SDS011;75760;31.390;34.904;2024-03-22T13:16:26;12.50;;;2.58;;
85342;SDS011;75760;31.390;34.904;2024-03-22T13:18:51;8.63;;;2.10;;
85342;SDS011;75760;31.390;34.904;2024-03-22T13:21:17;7.43;;;2.58;;
85342;SDS011;75760;31.390;34.904;2024-03-22T13:23:43;5.73;;;2.03;;
85342;SDS011;75760;31.390;34.904;2024-03-22T13:26:08;14.10;;;2.38;;
85342;SDS011;75760;31.390;34.904;2024-03-22T13:28:34;14.07;;;2.30;;
85342;SDS011;75760;31.390;34.904;2024-03-22T13:31:04;11.48;;;2.40;;
85342;SDS011;75760;31.390;34.904;2024-03-22T13:33:33;14.20;;;2.78;;
85342;SDS011;75760;31.390;34.904;2024-03-22T13:36:00;8.77;;;2.25;;
85342;SDS011;75760;31.390;34.904;2024-03-22T13:38:26;9.33;;;2.53;;
85342;SDS011;75760;31.390;34.904;2024-03-22T13:40:54;6.53;;;1.90;;
85342;SDS011;75760;31.390;34.904;2024-03-22T13:43:20;8.30;;;2.17;;
85342;SDS011;75760;31.390;34.904;2024-03-22T13:45:46;8.47;;;2.40;;
85342;SDS011;75760;31.390;34.904;2024-03-22T13:48:14;7.10;;;2.20;;
85342;SDS011;75760;31.390;34.904;2024-03-22T13:50:40;9.00;;;2.40;;
85342;SDS011;75760;31.390;34.904;2024-03-22T13:53:05;9.20;;;2.37;;
85342;SDS011;75760;31.390;34.904;2024-03-22T13:55:32;8.10;;;2.08;;
85342;SDS011;75760;31.390;34.904;2024-03-22T13:57:58;7.70;;;2.40;;
85342;SDS011;75760;31.390;34.904;2024-03-22T14:00:23;6.72;;;2.90;;
85342;SDS011;75760;31.390;34.904;2024-03-22T14:02:50;10.50;;;2.38;;
85342;SDS011;75760;31.390;34.904;2024-03-22T14:05:18;16.02;;;2.50;;
85342;SDS011;75760;31.390;34.904;2024-03-22T14:07:44;9.90;;;2.03;;
85342;SDS011;75760;31.390;34.904;2024-03-22T14:10:10;12.38;;;2.33;;
85342;SDS011;75760;31.390;34.904;2024-03-22T14:12:38;9.00;;;2.00;;
85342;SDS011;75760;31.390;34.904;2024-03-22T14:15:04;9.43;;;2.60;;
85342;SDS011;75760;31.390;34.904;2024-03-22T14:17:31;14.52;;;2.30;;
85342;SDS011;75760;31.390;34.904;2024-03-22T14:19:58;11.20;;;1.63;;
85342;SDS011;75760;31.390;34.904;2024-03-22T14:22:23;22.77;;;6.07;;
85342;SDS011;75760;31.390;34.904;2024-03-22T14:24:49;16.37;;;2.10;;
85342;SDS011;75760;31.390;34.904;2024-03-22T14:27:14;7.43;;;2.05;;
85342;SDS011;75760;31.390;34.904;2024-03-22T14:29:40;6.00;;;2.27;;
85342;SDS011;75760;31.390;34.904;2024-03-22T14:32:06;8.50;;;1.95;;
85342;SDS011;75760;31.390;34.904;2024-03-22T14:34:32;10.03;;;2.20;;
85342;SDS011;75760;31.390;34.904;2024-03-22T14:36:58;18.20;;;4.05;;